sensor_id;sensor_type;location;lat;lon;timestamp;P1;durP1;ratioP1;P2;durP2;ratioP2
18738;SDS011;9498;51.862;19.460;2023-03-12T00:01:55;24.47;;;9.23;;
18738;SDS011;9498;51.862;19.460;2023-03-12T00:04:25;25.63;;;9.43;;
18738;SDS011;9498;51.862;19.460;2023-03-12T00:06:52;20.53;;;8.73;;
18738;SDS011;9498;51.862;19.460;2023-03-12T00:09:19;22.63;;;9.03;;
18738;SDS011;9498;51.862;19.460;2023-03-12T00:11:47;21.13;;;9.57;;
18738;SDS011;9498;51.862;19.460;2023-03-12T00:14:14;23.38;;;9.52;;
18738;SDS011;9498;51.862;19.460;2023-03-12T00:16:41;24.97;;;9.50;;
18738;SDS011;9498;51.862;19.460;2023-03-12T00:19:09;29.57;;;9.63;;
18738;SDS011;9498;51.862;19.460;2023-03-12T00:21:39;22.00;;;8.90;;
18738;SDS011;9498;51.862;19.460;2023-03-12T00:24:06;29.57;;;10.17;;
18738;SDS011;9498;51.862;19.460;2023-03-12T00:26:34;23.47;;;10.40;;
18738;SDS011;9498;51.862;19.460;2023-03-12T00:29:01;28.17;;;10.63;;
18738;SDS011;9498;51.862;19.460;2023-03-12T00:31:30;23.67;;;9.70;;
18738;SDS011;9498;51.862;19.460;2023-03-12T00:33:57;21.80;;;9.10;;
18738;SDS011;9498;51.862;19.460;2023-03-12T00:36:26;20.20;;;9.17;;
18738;SDS011;9498;51.862;19.460;2023-03-12T00:38:55;24.15;;;10.63;;
18738;SDS011;9498;51.862;19.460;2023-03-12T00:41:23;28.40;;;10.60;;
18738;SDS011;9498;51.862;19.460;2023-03-12T00:43:50;22.90;;;10.23;;
18738;SDS011;9498;51.862;19.460;2023-03-12T00:46:18;23.37;;;10.30;;
18738;SDS011;9498;51.862;19.460;2023-03-12T00:48:46;24.37;;;10.87;;
18738;SDS011;9498;51.862;19.460;2023-03-12T00:51:13;29.13;;;11.00;;
18738;SDS011;9498;51.862;19.460;2023-03-12T00:53:40;28.23;;;10.20;;
18738;SDS011;9498;51.862;19.460;2023-03-12T00:56:09;27.27;;;10.23;;
18738;SDS011;9498;51.862;19.460;2023-03-12T00:58:36;22.70;;;9.77;;
18738;SDS011;9498;51.862;19.460;2023-03-12T01:01:06;20.33;;;8.97;;
18738;SDS011;9498;51.862;19.460;2023-03-12T01:03:33;23.47;;;8.57;;
18738;SDS011;9498;51.862;19.460;2023-03-12T01:06:00;23.00;;;10.60;;
18738;SDS011;9498;51.862;19.460;2023-03-12T01:08:27;21.10;;;9.67;;
18738;SDS011;9498;51.862;19.460;2023-03-12T01:10:54;17.90;;;8.53;;
18738;SDS011;9498;51.862;19.460;2023-03-12T01:13:23;22.93;;;8.83;;
18738;SDS011;9498;51.862;19.460;2023-03-12T01:15:50;22.27;;;9.23;;
18738;SDS011;9498;51.862;19.460;2023-03-12T01:18:17;20.87;;;8.77;;
18738;SDS011;9498;51.862;19.460;2023-03-12T01:20:45;23.60;;;8.93;;
18738;SDS011;9498;51.862;19.460;2023-03-12T01:23:12;21.03;;;8.90;;
18738;SDS011;9498;51.862;19.460;2023-03-12T01:25:40;20.73;;;8.77;;
18738;SDS011;9498;51.862;19.460;2023-03-12T01:28:07;24.77;;;9.20;;
18738;SDS011;9498;51.862;19.460;2023-03-12T01:30:36;26.90;;;10.93;;
18738;SDS011;9498;51.862;19.460;2023-03-12T01:33:03;25.53;;;10.57;;
18738;SDS011;9498;51.862;19.460;2023-03-12T01:35:34;22.80;;;9.80;;
18738;SDS011;9498;51.862;19.460;2023-03-12T01:38:01;23.00;;;9.73;;
18738;SDS011;9498;51.862;19.460;2023-03-12T01:40:28;26.27;;;9.03;;
18738;SDS011;9498;51.862;19.460;2023-03-12T01:42:56;20.90;;;9.17;;
18738;SDS011;9498;51.862;19.460;2023-03-12T01:48:35;25.30;;;10.03;;
18738;SDS011;9498;51.862;19.460;2023-03-12T01:51:03;23.20;;;10.33;;
18738;SDS011;9498;51.862;19.460;2023-03-12T01:53:31;27.67;;;11.65;;
18738;SDS011;9498;51.862;19.460;2023-03-12T01:55:59;24.23;;;11.47;;
18738;SDS011;9498;51.862;19.460;2023-03-12T01:58:26;24.77;;;10.87;;
18738;SDS011;9498;51.862;19.460;2023-03-12T02:00:54;22.30;;;10.33;;
18738;SDS011;9498;51.862;19.460;2023-03-12T02:03:21;25.60;;;10.60;;
18738;SDS011;9498;51.862;19.460;2023-03-12T02:05:52;31.30;;;12.37;;
18738;SDS011;9498;51.862;19.460;2023-03-12T02:08:19;28.87;;;11.50;;
18738;SDS011;9498;51.862;19.460;2023-03-12T02:10:49;25.97;;;11.17;;
18738;SDS011;9498;51.862;19.460;2023-03-12T02:13:16;35.17;;;12.63;;
18738;SDS011;9498;51.862;19.460;2023-03-12T02:15:43;28.57;;;12.13;;
18738;SDS011;9498;51.862;19.460;2023-03-12T02:18:12;30.27;;;13.80;;
18738;SDS011;9498;51.862;19.460;2023-03-12T02:20:44;30.97;;;13.23;;
18738;SDS011;9498;51.862;19.460;2023-03-12T02:23:16;30.43;;;12.63;;
18738;SDS011;9498;51.862;19.460;2023-03-12T02:25:46;29.67;;;11.57;;
18738;SDS011;9498;51.862;19.460;2023-03-12T02:28:16;26.07;;;11.37;;
18738;SDS011;9498;51.862;19.460;2023-03-12T02:30:45;30.83;;;12.27;;
18738;SDS011;9498;51.862;19.460;2023-03-12T02:33:13;28.17;;;11.80;;
18738;SDS011;9498;51.862;19.460;2023-03-12T02:35:40;27.77;;;11.57;;
18738;SDS011;9498;51.862;19.460;2023-03-12T02:40:51;29.47;;;12.23;;
18738;SDS011;9498;51.862;19.460;2023-03-12T02:43:19;34.78;;;14.50;;
18738;SDS011;9498;51.862;19.460;2023-03-12T02:45:47;27.37;;;12.67;;
18738;SDS011;9498;51.862;19.460;2023-03-12T02:48:15;25.37;;;11.57;;
18738;SDS011;9498;51.862;19.460;2023-03-12T02:50:42;27.13;;;11.47;;
18738;SDS011;9498;51.862;19.460;2023-03-12T02:53:09;26.53;;;11.83;;
18738;SDS011;9498;51.862;19.460;2023-03-12T02:55:36;32.83;;;12.23;;
18738;SDS011;9498;51.862;19.460;2023-03-12T02:58:05;22.97;;;10.43;;
18738;SDS011;9498;51.862;19.460;2023-03-12T03:00:32;24.13;;;11.40;;
18738;SDS011;9498;51.862;19.460;2023-03-12T03:02:59;24.93;;;11.07;;
18738;SDS011;9498;51.862;19.460;2023-03-12T03:05:27;21.53;;;9.87;;
18738;SDS011;9498;51.862;19.460;2023-03-12T03:07:54;28.30;;;13.30;;
18738;SDS011;9498;51.862;19.460;2023-03-12T03:10:21;27.67;;;10.90;;
18738;SDS011;9498;51.862;19.460;2023-03-12T03:12:48;29.87;;;10.80;;
18738;SDS011;9498;51.862;19.460;2023-03-12T03:15:17;26.47;;;10.30;;
18738;SDS011;9498;51.862;19.460;2023-03-12T03:17:44;24.10;;;9.90;;
18738;SDS011;9498;51.862;19.460;2023-03-12T03:20:11;25.67;;;10.10;;
18738;SDS011;9498;51.862;19.460;2023-03-12T03:22:38;22.50;;;9.63;;
18738;SDS011;9498;51.862;19.460;2023-03-12T03:25:07;18.93;;;9.17;;
18738;SDS011;9498;51.862;19.460;2023-03-12T03:27:34;20.57;;;9.00;;
18738;SDS011;9498;51.862;19.460;2023-03-12T03:30:02;24.00;;;9.60;;
18738;SDS011;9498;51.862;19.460;2023-03-12T03:32:31;24.45;;;10.50;;
18738;SDS011;9498;51.862;19.460;2023-03-12T03:34:58;20.93;;;8.67;;
18738;SDS011;9498;51.862;19.460;2023-03-12T03:37:25;17.23;;;7.97;;
18738;SDS011;9498;51.862;19.460;2023-03-12T03:39:52;16.53;;;7.70;;
18738;SDS011;9498;51.862;19.460;2023-03-12T03:42:19;18.23;;;7.77;;
18738;SDS011;9498;51.862;19.460;2023-03-12T03:44:47;15.70;;;7.13;;
18738;SDS011;9498;51.862;19.460;2023-03-12T03:47:14;19.27;;;7.03;;
18738;SDS011;9498;51.862;19.460;2023-03-12T03:49:42;16.53;;;6.90;;
18738;SDS011;9498;51.862;19.460;2023-03-12T03:52:10;21.77;;;7.40;;
18738;SDS011;9498;51.862;19.460;2023-03-12T03:54:37;19.90;;;8.00;;
18738;SDS011;9498;51.862;19.460;2023-03-12T03:57:04;24.08;;;9.43;;
18738;SDS011;9498;51.862;19.460;2023-03-12T03:59:31;17.63;;;8.60;;
18738;SDS011;9498;51.862;19.460;2023-03-12T04:01:58;19.67;;;8.93;;
18738;SDS011;9498;51.862;19.460;2023-03-12T04:04:26;16.13;;;7.83;;
18738;SDS011;9498;51.862;19.460;2023-03-12T04:06:54;25.60;;;8.13;;
18738;SDS011;9498;51.862;19.460;2023-03-12T04:09:22;18.77;;;8.03;;
18738;SDS011;9498;51.862;19.460;2023-03-12T04:11:49;19.27;;;7.73;;
18738;SDS011;9498;51.862;19.460;2023-03-12T04:14:16;21.77;;;8.07;;
18738;SDS011;9498;51.862;19.460;2023-03-12T04:16:43;16.73;;;7.23;;
18738;SDS011;9498;51.862;19.460;2023-03-12T04:19:10;21.80;;;8.30;;
18738;SDS011;9498;51.862;19.460;2023-03-12T04:21:38;19.45;;;8.98;;
18738;SDS011;9498;51.862;19.460;2023-03-12T04:24:07;20.47;;;8.83;;
18738;SDS011;9498;51.862;19.460;2023-03-12T04:26:34;22.20;;;7.77;;
18738;SDS011;9498;51.862;19.460;2023-03-12T04:29:01;17.33;;;7.93;;
18738;SDS011;9498;51.862;19.460;2023-03-12T04:31:28;16.30;;;8.07;;
18738;SDS011;9498;51.862;19.460;2023-03-12T04:33:55;17.33;;;7.60;;
18738;SDS011;9498;51.862;19.460;2023-03-12T04:36:23;20.73;;;8.13;;
18738;SDS011;9498;51.862;19.460;2023-03-12T04:38:50;19.90;;;7.53;;
18738;SDS011;9498;51.862;19.460;2023-03-12T04:41:19;17.37;;;7.77;;
18738;SDS011;9498;51.862;19.460;2023-03-12T04:43:46;18.13;;;8.23;;
18738;SDS011;9498;51.862;19.460;2023-03-12T04:46:14;15.93;;;7.83;;
18738;SDS011;9498;51.862;19.460;2023-03-12T04:48:41;20.83;;;9.90;;
18738;SDS011;9498;51.862;19.460;2023-03-12T04:51:08;17.37;;;8.33;;
18738;SDS011;9498;51.862;19.460;2023-03-12T04:53:36;16.37;;;8.30;;
18738;SDS011;9498;51.862;19.460;2023-03-12T04:56:04;16.77;;;8.03;;
18738;SDS011;9498;51.862;19.460;2023-03-12T04:58:33;19.33;;;7.93;;
18738;SDS011;9498;51.862;19.460;2023-03-12T05:01:01;21.30;;;7.93;;
18738;SDS011;9498;51.862;19.460;2023-03-12T05:03:28;21.67;;;7.70;;
18738;SDS011;9498;51.862;19.460;2023-03-12T05:05:55;20.40;;;7.70;;
18738;SDS011;9498;51.862;19.460;2023-03-12T05:08:22;15.20;;;7.90;;
18738;SDS011;9498;51.862;19.460;2023-03-12T05:10:49;17.30;;;7.53;;
18738;SDS011;9498;51.862;19.460;2023-03-12T05:13:18;24.23;;;9.10;;
18738;SDS011;9498;51.862;19.460;2023-03-12T05:15:47;22.27;;;8.00;;
18738;SDS011;9498;51.862;19.460;2023-03-12T05:18:14;15.67;;;7.87;;
18738;SDS011;9498;51.862;19.460;2023-03-12T05:20:42;14.23;;;6.77;;
18738;SDS011;9498;51.862;19.460;2023-03-12T05:23:09;17.57;;;7.80;;
18738;SDS011;9498;51.862;19.460;2023-03-12T05:25:37;15.97;;;7.40;;
18738;SDS011;9498;51.862;19.460;2023-03-12T05:28:04;17.37;;;7.20;;
18738;SDS011;9498;51.862;19.460;2023-03-12T05:30:31;17.77;;;6.93;;
18738;SDS011;9498;51.862;19.460;2023-03-12T05:33:00;19.13;;;7.50;;
18738;SDS011;9498;51.862;19.460;2023-03-12T05:35:27;18.63;;;8.10;;
18738;SDS011;9498;51.862;19.460;2023-03-12T05:37:54;18.37;;;7.47;;
18738;SDS011;9498;51.862;19.460;2023-03-12T05:40:21;19.80;;;8.80;;
18738;SDS011;9498;51.862;19.460;2023-03-12T05:42:49;16.67;;;7.50;;
18738;SDS011;9498;51.862;19.460;2023-03-12T05:45:16;18.03;;;7.83;;
18738;SDS011;9498;51.862;19.460;2023-03-12T05:47:43;19.73;;;8.17;;
18738;SDS011;9498;51.862;19.460;2023-03-12T05:50:12;17.87;;;7.70;;
18738;SDS011;9498;51.862;19.460;2023-03-12T05:52:40;19.10;;;7.97;;
18738;SDS011;9498;51.862;19.460;2023-03-12T05:55:07;17.07;;;7.77;;
18738;SDS011;9498;51.862;19.460;2023-03-12T05:57:35;16.87;;;8.27;;
18738;SDS011;9498;51.862;19.460;2023-03-12T06:00:02;18.03;;;8.07;;
18738;SDS011;9498;51.862;19.460;2023-03-12T06:02:30;27.03;;;8.43;;
18738;SDS011;9498;51.862;19.460;2023-03-12T06:04:57;20.33;;;9.45;;
18738;SDS011;9498;51.862;19.460;2023-03-12T06:07:26;21.97;;;8.33;;
18738;SDS011;9498;51.862;19.460;2023-03-12T06:09:53;17.07;;;8.80;;
18738;SDS011;9498;51.862;19.460;2023-03-12T06:12:20;17.87;;;7.50;;
18738;SDS011;9498;51.862;19.460;2023-03-12T06:14:47;16.33;;;8.13;;
18738;SDS011;9498;51.862;19.460;2023-03-12T06:17:15;21.43;;;8.77;;
18738;SDS011;9498;51.862;19.460;2023-03-12T06:19:42;18.53;;;8.03;;
18738;SDS011;9498;51.862;19.460;2023-03-12T06:22:09;12.33;;;6.97;;
18738;SDS011;9498;51.862;19.460;2023-03-12T06:24:37;21.40;;;8.53;;
18738;SDS011;9498;51.862;19.460;2023-03-12T06:27:06;21.40;;;8.00;;
18738;SDS011;9498;51.862;19.460;2023-03-12T06:29:33;14.77;;;7.27;;
18738;SDS011;9498;51.862;19.460;2023-03-12T06:32:01;20.27;;;7.50;;
18738;SDS011;9498;51.862;19.460;2023-03-12T06:34:28;11.87;;;7.10;;
18738;SDS011;9498;51.862;19.460;2023-03-12T06:36:55;12.50;;;7.07;;
18738;SDS011;9498;51.862;19.460;2023-03-12T06:39:22;12.87;;;6.83;;
18738;SDS011;9498;51.862;19.460;2023-03-12T06:41:51;15.23;;;7.30;;
18738;SDS011;9498;51.862;19.460;2023-03-12T06:44:18;12.77;;;6.80;;
18738;SDS011;9498;51.862;19.460;2023-03-12T06:46:45;14.50;;;6.67;;
18738;SDS011;9498;51.862;19.460;2023-03-12T06:49:12;17.43;;;7.17;;
18738;SDS011;9498;51.862;19.460;2023-03-12T06:51:40;13.43;;;6.37;;
18738;SDS011;9498;51.862;19.460;2023-03-12T06:54:07;12.70;;;6.33;;
18738;SDS011;9498;51.862;19.460;2023-03-12T06:56:34;12.80;;;6.17;;
18738;SDS011;9498;51.862;19.460;2023-03-12T06:59:03;12.70;;;6.77;;
18738;SDS011;9498;51.862;19.460;2023-03-12T07:01:30;12.33;;;6.07;;
18738;SDS011;9498;51.862;19.460;2023-03-12T07:03:58;14.73;;;6.57;;
18738;SDS011;9498;51.862;19.460;2023-03-12T07:06:25;25.00;;;7.73;;
18738;SDS011;9498;51.862;19.460;2023-03-12T07:08:52;14.30;;;7.30;;
18738;SDS011;9498;51.862;19.460;2023-03-12T07:11:19;15.83;;;7.30;;
18738;SDS011;9498;51.862;19.460;2023-03-12T07:13:47;13.67;;;7.03;;
18738;SDS011;9498;51.862;19.460;2023-03-12T07:16:15;15.07;;;6.70;;
18738;SDS011;9498;51.862;19.460;2023-03-12T07:18:42;14.50;;;7.23;;
18738;SDS011;9498;51.862;19.460;2023-03-12T07:21:10;14.50;;;5.93;;
18738;SDS011;9498;51.862;19.460;2023-03-12T07:23:37;13.70;;;5.67;;
18738;SDS011;9498;51.862;19.460;2023-03-12T07:26:04;12.10;;;5.87;;
18738;SDS011;9498;51.862;19.460;2023-03-12T07:28:31;13.27;;;5.67;;
18738;SDS011;9498;51.862;19.460;2023-03-12T07:30:59;14.90;;;5.57;;
18738;SDS011;9498;51.862;19.460;2023-03-12T07:33:28;14.32;;;5.80;;
18738;SDS011;9498;51.862;19.460;2023-03-12T07:35:55;11.67;;;5.73;;
18738;SDS011;9498;51.862;19.460;2023-03-12T07:38:22;12.87;;;6.03;;
18738;SDS011;9498;51.862;19.460;2023-03-12T07:40:50;10.07;;;5.23;;
18738;SDS011;9498;51.862;19.460;2023-03-12T07:43:17;16.70;;;4.93;;
18738;SDS011;9498;51.862;19.460;2023-03-12T07:45:44;15.63;;;7.33;;
18738;SDS011;9498;51.862;19.460;2023-03-12T07:48:11;10.80;;;5.23;;
18738;SDS011;9498;51.862;19.460;2023-03-12T07:50:40;13.80;;;5.60;;
18738;SDS011;9498;51.862;19.460;2023-03-12T07:53:07;20.43;;;6.93;;
18738;SDS011;9498;51.862;19.460;2023-03-12T07:55:34;10.43;;;4.57;;
18738;SDS011;9498;51.862;19.460;2023-03-12T07:58:01;7.70;;;4.00;;
18738;SDS011;9498;51.862;19.460;2023-03-12T08:00:29;12.27;;;5.23;;
18738;SDS011;9498;51.862;19.460;2023-03-12T08:02:56;9.50;;;4.00;;
18738;SDS011;9498;51.862;19.460;2023-03-12T08:05:23;6.77;;;4.17;;
18738;SDS011;9498;51.862;19.460;2023-03-12T08:07:52;10.53;;;3.70;;
18738;SDS011;9498;51.862;19.460;2023-03-12T08:10:20;12.53;;;3.93;;
18738;SDS011;9498;51.862;19.460;2023-03-12T08:12:47;10.67;;;4.17;;
18738;SDS011;9498;51.862;19.460;2023-03-12T08:15:14;13.73;;;5.07;;
18738;SDS011;9498;51.862;19.460;2023-03-12T08:17:41;16.03;;;5.57;;
18738;SDS011;9498;51.862;19.460;2023-03-12T08:20:09;10.73;;;4.53;;
18738;SDS011;9498;51.862;19.460;2023-03-12T08:22:37;20.33;;;5.70;;
18738;SDS011;9498;51.862;19.460;2023-03-12T08:25:06;11.17;;;5.20;;
18738;SDS011;9498;51.862;19.460;2023-03-12T08:27:33;7.60;;;3.00;;
18738;SDS011;9498;51.862;19.460;2023-03-12T08:30:00;12.13;;;4.07;;
18738;SDS011;9498;51.862;19.460;2023-03-12T08:32:27;6.73;;;2.73;;
18738;SDS011;9498;51.862;19.460;2023-03-12T08:34:55;14.23;;;4.03;;
18738;SDS011;9498;51.862;19.460;2023-03-12T08:37:22;6.70;;;3.13;;
18738;SDS011;9498;51.862;19.460;2023-03-12T08:39:50;14.97;;;3.60;;
18738;SDS011;9498;51.862;19.460;2023-03-12T08:42:18;10.50;;;3.47;;
18738;SDS011;9498;51.862;19.460;2023-03-12T08:44:45;8.33;;;3.33;;
18738;SDS011;9498;51.862;19.460;2023-03-12T08:47:13;7.93;;;3.63;;
18738;SDS011;9498;51.862;19.460;2023-03-12T08:49:40;9.00;;;3.27;;
18738;SDS011;9498;51.862;19.460;2023-03-12T08:52:07;8.20;;;3.10;;
18738;SDS011;9498;51.862;19.460;2023-03-12T08:54:34;6.83;;;2.90;;
18738;SDS011;9498;51.862;19.460;2023-03-12T08:57:01;17.33;;;4.13;;
18738;SDS011;9498;51.862;19.460;2023-03-12T08:59:30;14.97;;;3.93;;
18738;SDS011;9498;51.862;19.460;2023-03-12T09:01:57;12.57;;;4.03;;
18738;SDS011;9498;51.862;19.460;2023-03-12T09:04:25;14.73;;;3.50;;
18738;SDS011;9498;51.862;19.460;2023-03-12T09:06:52;7.40;;;2.77;;
18738;SDS011;9498;51.862;19.460;2023-03-12T09:09:19;5.30;;;2.00;;
18738;SDS011;9498;51.862;19.460;2023-03-12T09:11:47;5.93;;;2.30;;
18738;SDS011;9498;51.862;19.460;2023-03-12T09:14:14;10.10;;;3.00;;
18738;SDS011;9498;51.862;19.460;2023-03-12T09:16:42;9.97;;;3.13;;
18738;SDS011;9498;51.862;19.460;2023-03-12T09:19:10;4.03;;;2.20;;
18738;SDS011;9498;51.862;19.460;2023-03-12T09:21:37;6.87;;;2.93;;
18738;SDS011;9498;51.862;19.460;2023-03-12T09:24:05;7.57;;;2.37;;
18738;SDS011;9498;51.862;19.460;2023-03-12T09:26:32;10.57;;;2.77;;
18738;SDS011;9498;51.862;19.460;2023-03-12T09:28:59;7.40;;;3.00;;
18738;SDS011;9498;51.862;19.460;2023-03-12T09:31:26;8.57;;;3.27;;
18738;SDS011;9498;51.862;19.460;2023-03-12T09:33:55;5.60;;;2.67;;
18738;SDS011;9498;51.862;19.460;2023-03-12T09:36:22;11.60;;;3.10;;
18738;SDS011;9498;51.862;19.460;2023-03-12T09:38:49;4.70;;;2.30;;
18738;SDS011;9498;51.862;19.460;2023-03-12T09:41:18;5.90;;;2.67;;
18738;SDS011;9498;51.862;19.460;2023-03-12T09:43:46;4.70;;;2.20;;
18738;SDS011;9498;51.862;19.460;2023-03-12T09:46:17;3.90;;;2.03;;
18738;SDS011;9498;51.862;19.460;2023-03-12T09:48:46;8.90;;;2.40;;
18738;SDS011;9498;51.862;19.460;2023-03-12T09:51:17;10.00;;;2.60;;
18738;SDS011;9498;51.862;19.460;2023-03-12T09:53:46;4.13;;;1.93;;
18738;SDS011;9498;51.862;19.460;2023-03-12T09:56:16;7.80;;;2.10;;
18738;SDS011;9498;51.862;19.460;2023-03-12T09:58:43;9.97;;;2.67;;
18738;SDS011;9498;51.862;19.460;2023-03-12T10:01:18;7.00;;;3.30;;
18738;SDS011;9498;51.862;19.460;2023-03-12T10:06:35;4.70;;;1.80;;
18738;SDS011;9498;51.862;19.460;2023-03-12T10:09:12;6.50;;;2.60;;
18738;SDS011;9498;51.862;19.460;2023-03-12T10:11:43;7.60;;;2.83;;
18738;SDS011;9498;51.862;19.460;2023-03-12T10:14:18;6.33;;;2.83;;
18738;SDS011;9498;51.862;19.460;2023-03-12T10:16:50;5.67;;;2.30;;
18738;SDS011;9498;51.862;19.460;2023-03-12T10:19:24;10.27;;;3.20;;
18738;SDS011;9498;51.862;19.460;2023-03-12T10:21:58;7.80;;;2.70;;
18738;SDS011;9498;51.862;19.460;2023-03-12T10:24:36;6.47;;;2.80;;
18738;SDS011;9498;51.862;19.460;2023-03-12T10:27:08;9.87;;;3.00;;
18738;SDS011;9498;51.862;19.460;2023-03-12T10:29:37;6.37;;;2.60;;
18738;SDS011;9498;51.862;19.460;2023-03-12T10:32:05;6.17;;;2.40;;
18738;SDS011;9498;51.862;19.460;2023-03-12T10:34:36;7.87;;;3.47;;
18738;SDS011;9498;51.862;19.460;2023-03-12T10:37:11;10.20;;;2.40;;
18738;SDS011;9498;51.862;19.460;2023-03-12T10:39:39;5.93;;;2.63;;
18738;SDS011;9498;51.862;19.460;2023-03-12T10:42:11;7.03;;;3.10;;
18738;SDS011;9498;51.862;19.460;2023-03-12T10:44:39;6.93;;;2.67;;
18738;SDS011;9498;51.862;19.460;2023-03-12T10:47:08;9.60;;;3.10;;
18738;SDS011;9498;51.862;19.460;2023-03-12T10:49:39;8.57;;;3.43;;
18738;SDS011;9498;51.862;19.460;2023-03-12T10:52:13;9.73;;;3.40;;
18738;SDS011;9498;51.862;19.460;2023-03-12T10:54:41;8.30;;;2.93;;
18738;SDS011;9498;51.862;19.460;2023-03-12T10:57:11;6.57;;;2.90;;
18738;SDS011;9498;51.862;19.460;2023-03-12T10:59:40;6.33;;;2.67;;
18738;SDS011;9498;51.862;19.460;2023-03-12T11:04:53;10.30;;;3.53;;
18738;SDS011;9498;51.862;19.460;2023-03-12T11:07:23;8.10;;;3.50;;
18738;SDS011;9498;51.862;19.460;2023-03-12T11:12:53;8.23;;;3.53;;
18738;SDS011;9498;51.862;19.460;2023-03-12T11:15:22;7.27;;;2.77;;
18738;SDS011;9498;51.862;19.460;2023-03-12T11:17:50;7.50;;;2.97;;
18738;SDS011;9498;51.862;19.460;2023-03-12T11:20:22;7.47;;;2.43;;
18738;SDS011;9498;51.862;19.460;2023-03-12T11:22:52;8.10;;;2.70;;
18738;SDS011;9498;51.862;19.460;2023-03-12T11:25:20;9.17;;;2.90;;
18738;SDS011;9498;51.862;19.460;2023-03-12T11:27:48;8.27;;;2.87;;
18738;SDS011;9498;51.862;19.460;2023-03-12T11:30:18;5.53;;;2.70;;
18738;SDS011;9498;51.862;19.460;2023-03-12T11:32:48;7.00;;;2.73;;
18738;SDS011;9498;51.862;19.460;2023-03-12T11:35:17;9.37;;;3.10;;
18738;SDS011;9498;51.862;19.460;2023-03-12T11:37:49;11.47;;;3.30;;
18738;SDS011;9498;51.862;19.460;2023-03-12T11:40:24;6.80;;;2.67;;
18738;SDS011;9498;51.862;19.460;2023-03-12T11:43:06;9.70;;;3.30;;
18738;SDS011;9498;51.862;19.460;2023-03-12T11:45:38;8.67;;;3.27;;
18738;SDS011;9498;51.862;19.460;2023-03-12T11:48:08;7.07;;;2.73;;
18738;SDS011;9498;51.862;19.460;2023-03-12T11:50:42;9.10;;;3.13;;
18738;SDS011;9498;51.862;19.460;2023-03-12T11:53:17;7.37;;;2.93;;
18738;SDS011;9498;51.862;19.460;2023-03-12T11:55:55;8.93;;;3.90;;
18738;SDS011;9498;51.862;19.460;2023-03-12T11:58:26;10.30;;;3.90;;
18738;SDS011;9498;51.862;19.460;2023-03-12T12:00:56;13.17;;;3.40;;
18738;SDS011;9498;51.862;19.460;2023-03-12T12:03:38;5.80;;;2.80;;
18738;SDS011;9498;51.862;19.460;2023-03-12T12:06:08;4.93;;;2.17;;
18738;SDS011;9498;51.862;19.460;2023-03-12T12:11:27;6.33;;;2.93;;
18738;SDS011;9498;51.862;19.460;2023-03-12T12:13:59;5.30;;;2.50;;
18738;SDS011;9498;51.862;19.460;2023-03-12T12:16:31;4.63;;;2.30;;
18738;SDS011;9498;51.862;19.460;2023-03-12T12:19:04;6.53;;;2.70;;
18738;SDS011;9498;51.862;19.460;2023-03-12T12:21:36;5.93;;;2.33;;
18738;SDS011;9498;51.862;19.460;2023-03-12T12:24:13;7.33;;;2.80;;
18738;SDS011;9498;51.862;19.460;2023-03-12T12:26:45;8.30;;;3.20;;
18738;SDS011;9498;51.862;19.460;2023-03-12T12:29:20;8.57;;;2.80;;
18738;SDS011;9498;51.862;19.460;2023-03-12T12:31:52;6.13;;;2.57;;
18738;SDS011;9498;51.862;19.460;2023-03-12T12:34:33;3.97;;;2.33;;
18738;SDS011;9498;51.862;19.460;2023-03-12T12:37:14;6.37;;;2.83;;
18738;SDS011;9498;51.862;19.460;2023-03-12T12:39:44;9.83;;;3.53;;
18738;SDS011;9498;51.862;19.460;2023-03-12T12:42:15;7.80;;;3.20;;
18738;SDS011;9498;51.862;19.460;2023-03-12T12:44:46;8.83;;;3.10;;
18738;SDS011;9498;51.862;19.460;2023-03-12T12:47:16;8.30;;;3.10;;
18738;SDS011;9498;51.862;19.460;2023-03-12T12:49:45;9.17;;;3.20;;
18738;SDS011;9498;51.862;19.460;2023-03-12T12:52:14;5.20;;;2.80;;
18738;SDS011;9498;51.862;19.460;2023-03-12T12:54:46;10.17;;;2.90;;
18738;SDS011;9498;51.862;19.460;2023-03-12T12:57:19;6.40;;;3.03;;
18738;SDS011;9498;51.862;19.460;2023-03-12T12:59:50;10.20;;;3.60;;
18738;SDS011;9498;51.862;19.460;2023-03-12T13:02:22;14.13;;;4.03;;
18738;SDS011;9498;51.862;19.460;2023-03-12T13:04:50;8.83;;;3.17;;
18738;SDS011;9498;51.862;19.460;2023-03-12T13:07:28;7.87;;;2.80;;
18738;SDS011;9498;51.862;19.460;2023-03-12T13:09:56;8.00;;;2.80;;
18738;SDS011;9498;51.862;19.460;2023-03-12T13:12:26;6.17;;;3.03;;
18738;SDS011;9498;51.862;19.460;2023-03-12T13:14:55;7.67;;;2.73;;
18738;SDS011;9498;51.862;19.460;2023-03-12T13:17:27;10.83;;;3.50;;
18738;SDS011;9498;51.862;19.460;2023-03-12T13:19:58;13.67;;;3.40;;
18738;SDS011;9498;51.862;19.460;2023-03-12T13:22:30;9.50;;;3.13;;
18738;SDS011;9498;51.862;19.460;2023-03-12T13:25:03;9.60;;;3.27;;
18738;SDS011;9498;51.862;19.460;2023-03-12T13:27:37;8.00;;;3.00;;
18738;SDS011;9498;51.862;19.460;2023-03-12T13:33:10;6.53;;;2.70;;
18738;SDS011;9498;51.862;19.460;2023-03-12T13:35:38;5.20;;;2.80;;
18738;SDS011;9498;51.862;19.460;2023-03-12T13:38:06;10.73;;;2.97;;
18738;SDS011;9498;51.862;19.460;2023-03-12T13:40:52;8.13;;;2.97;;
18738;SDS011;9498;51.862;19.460;2023-03-12T13:43:41;6.10;;;2.80;;
18738;SDS011;9498;51.862;19.460;2023-03-12T13:48:58;7.40;;;3.20;;
18738;SDS011;9498;51.862;19.460;2023-03-12T13:51:26;13.27;;;3.80;;
18738;SDS011;9498;51.862;19.460;2023-03-12T13:53:54;10.57;;;3.63;;
18738;SDS011;9498;51.862;19.460;2023-03-12T13:56:24;9.50;;;2.90;;
18738;SDS011;9498;51.862;19.460;2023-03-12T13:58:54;9.40;;;3.20;;
18738;SDS011;9498;51.862;19.460;2023-03-12T14:01:22;8.00;;;3.40;;
18738;SDS011;9498;51.862;19.460;2023-03-12T14:03:53;9.07;;;3.27;;
18738;SDS011;9498;51.862;19.460;2023-03-12T14:06:22;8.10;;;3.20;;
18738;SDS011;9498;51.862;19.460;2023-03-12T14:08:53;6.67;;;3.03;;
18738;SDS011;9498;51.862;19.460;2023-03-12T14:11:35;11.40;;;4.17;;
18738;SDS011;9498;51.862;19.460;2023-03-12T14:16:50;7.63;;;3.10;;
18738;SDS011;9498;51.862;19.460;2023-03-12T14:19:21;17.17;;;4.07;;
18738;SDS011;9498;51.862;19.460;2023-03-12T14:21:49;7.03;;;2.80;;
18738;SDS011;9498;51.862;19.460;2023-03-12T14:24:20;6.00;;;2.60;;
18738;SDS011;9498;51.862;19.460;2023-03-12T14:26:49;11.03;;;3.43;;
18738;SDS011;9498;51.862;19.460;2023-03-12T14:29:18;12.27;;;3.23;;
18738;SDS011;9498;51.862;19.460;2023-03-12T14:31:46;10.37;;;3.00;;
18738;SDS011;9498;51.862;19.460;2023-03-12T14:34:16;6.27;;;2.80;;
18738;SDS011;9498;51.862;19.460;2023-03-12T14:36:45;9.37;;;3.47;;
18738;SDS011;9498;51.862;19.460;2023-03-12T14:39:18;12.60;;;3.77;;
18738;SDS011;9498;51.862;19.460;2023-03-12T14:41:47;12.47;;;3.37;;
18738;SDS011;9498;51.862;19.460;2023-03-12T14:44:19;8.67;;;3.47;;
18738;SDS011;9498;51.862;19.460;2023-03-12T14:46:54;6.47;;;2.93;;
18738;SDS011;9498;51.862;19.460;2023-03-12T14:49:22;8.00;;;3.00;;
18738;SDS011;9498;51.862;19.460;2023-03-12T14:51:50;11.10;;;3.70;;
18738;SDS011;9498;51.862;19.460;2023-03-12T14:54:17;10.73;;;3.50;;
18738;SDS011;9498;51.862;19.460;2023-03-12T14:56:45;10.00;;;3.17;;
18738;SDS011;9498;51.862;19.460;2023-03-12T14:59:20;11.63;;;3.73;;
18738;SDS011;9498;51.862;19.460;2023-03-12T15:01:48;6.87;;;3.13;;
18738;SDS011;9498;51.862;19.460;2023-03-12T15:04:15;13.03;;;3.70;;
18738;SDS011;9498;51.862;19.460;2023-03-12T15:06:46;12.23;;;3.70;;
18738;SDS011;9498;51.862;19.460;2023-03-12T15:09:15;12.70;;;4.33;;
18738;SDS011;9498;51.862;19.460;2023-03-12T15:11:43;9.77;;;4.43;;